Time;durP1;ratioP1;P1;durP2;ratioP2;P2;SDS_P1;SDS_P2;PMS_P1;PMS_P2;Temp;Humidity;BMP_temperature;BMP_pressure;BME280_temperature;BME280_humidity;BME280_pressure;Samples;Min_cycle;Max_cycle;Signal;HPM_P1;HPM_P2
2022/05/28 06:17:01;;;;;;;18.98;12.18;;;;;;;;;;6154995;23;20088;-76
2022/05/28 06:19:27;;;;;;;14.15;12.18;;;;;;;;;;6159426;23;20029;-78
2022/05/28 06:21:52;;;;;;;13.48;12.07;;;;;;;;;;6159416;23;20009;-80
2022/05/28 06:24:17;;;;;;;15.45;12.35;;;;;;;;;;6185789;23;20005;-81
2022/05/28 06:26:43;;;;;;;15.10;12.88;;;;;;;;;;6185820;23;20009;-81
2022/05/28 06:29:09;;;;;;;14.07;12.60;;;;;;;;;;6185682;23;20015;-80
2022/05/28 06:31:34;;;;;;;14.40;11.70;;;;;;;;;;6186078;23;20408;-82
2022/05/28 06:34:00;;;;;;;16.13;12.05;;;;;;;;;;6186228;23;20081;-81
2022/05/28 06:36:25;;;;;;;12.77;11.40;;;;;;;;;;6185901;23;20012;-82
2022/05/28 06:38:50;;;;;;;15.65;12.63;;;;;;;;;;6185703;23;20001;-84
2022/05/28 06:41:16;;;;;;;16.92;13.43;;;;;;;;;;6186813;23;20416;-84
2022/05/28 06:43:42;;;;;;;16.45;12.25;;;;;;;;;;6188044;23;20063;-83
2022/05/28 06:46:09;;;;;;;13.80;12.00;;;;;;;;;;6188046;23;20401;-80
2022/05/28 06:48:38;;;;;;;16.33;12.45;;;;;;;;;;6187887;23;20012;-84
2022/05/28 06:51:04;;;;;;;;;;;;;;;;;;6188510;23;20411;-84
2022/05/28 06:53:37;;;;;;;13.90;11.77;;;;;;;;;;6187989;23;19912;-85
2022/05/28 06:56:04;;;;;;;14.10;11.48;;;;;;;;;;6161410;23;20013;-84
2022/05/28 06:58:29;;;;;;;13.20;11.65;;;;;;;;;;6188017;23;20489;-84
2022/05/28 07:00:55;;;;;;;15.45;11.93;;;;;;;;;;6188035;23;20044;-83
2022/05/28 07:03:24;;;;;;;13.07;10.75;;;;;;;;;;6187839;23;20084;-84
2022/05/28 07:05:49;;;;;;;13.33;10.87;;;;;;;;;;6187565;23;20432;-84
2022/05/28 07:08:15;;;;;;;12.55;10.95;;;;;;;;;;6187648;23;20243;-84
2022/05/28 07:10:44;;;;;;;15.93;12.13;;;;;;;;;;6187675;23;20001;-84
2022/05/28 07:13:10;;;;;;;13.90;11.45;;;;;;;;;;6187519;23;20075;-83
2022/05/28 07:15:37;;;;;;;15.52;11.10;;;;;;;;;;6205523;23;20059;-84
2022/05/28 07:18:03;;;;;;;12.27;11.02;;;;;;;;;;6217528;23;20087;-84
2022/05/28 07:20:29;;;;;;;11.95;10.80;;;;;;;;;;6217461;23;20028;-84
2022/05/28 07:22:54;;;;;;;11.93;10.27;;;;;;;;;;6217408;23;20083;-84
2022/05/28 07:25:20;;;;;;;15.25;12.07;;;;;;;;;;6217621;23;20481;-84
2022/05/28 07:27:45;;;;;;;14.13;11.60;;;;;;;;;;6216053;23;20008;-84
2022/05/28 07:30:11;;;;;;;14.18;12.07;;;;;;;;;;6217825;23;20400;-84
2022/05/28 07:32:37;;;;;;;12.85;11.48;;;;;;;;;;6217558;23;20000;-84
2022/05/28 07:35:03;;;;;;;11.25;10.05;;;;;;;;;;6216185;23;20031;-84
2022/05/28 07:37:29;;;;;;;13.75;12.35;;;;;;;;;;6217620;23;20005;-84
2022/05/28 07:39:56;;;;;;;12.23;11.07;;;;;;;;;;6217541;23;20001;-84
2022/05/28 07:42:21;;;;;;;14.85;11.70;;;;;;;;;;6217601;23;20004;-84
2022/05/28 07:44:47;;;;;;;11.75;10.50;;;;;;;;;;6217872;23;20059;-84
2022/05/28 07:47:12;;;;;;;14.65;10.77;;;;;;;;;;6217619;23;20451;-85
2022/05/28 07:49:39;;;;;;;12.18;10.93;;;;;;;;;;6217332;23;20006;-84
2022/05/28 07:52:05;;;;;;;10.77;9.70;;;;;;;;;;6217120;23;20367;-83
2022/05/28 07:54:31;;;;;;;14.23;10.45;;;;;;;;;;6217307;23;20298;-84
2022/05/28 07:56:56;;;;;;;12.10;10.10;;;;;;;;;;6215957;23;20008;-84
2022/05/28 07:59:22;;;;;;;11.32;9.27;;;;;;;;;;6217456;23;20006;-84
2022/05/28 08:01:48;;;;;;;11.68;10.48;;;;;;;;;;6215905;23;20375;-84
2022/05/28 08:04:14;;;;;;;10.35;9.30;;;;;;;;;;6217666;23;20001;-84
2022/05/28 08:06:40;;;;;;;11.27;9.85;;;;;;;;;;6217446;23;20007;-84
2022/05/28 08:09:07;;;;;;;13.25;11.27;;;;;;;;;;6217196;23;20434;-84
2022/05/28 08:11:32;;;;;;;15.18;10.35;;;;;;;;;;6217264;23;20005;-84
2022/05/28 08:13:58;;;;;;;10.35;9.35;;;;;;;;;;6217428;23;20012;-84
2022/05/28 08:16:24;;;;;;;10.70;9.48;;;;;;;;;;6195189;23;20037;-84
2022/05/28 08:18:50;;;;;;;12.23;9.02;;;;;;;;;;6187301;23;20052;-84
2022/05/28 08:23:59;;;;;;;10.82;8.90;;;;;;;;;;6187162;23;20074;-84
2022/05/28 08:26:25;;;;;;;11.10;9.15;;;;;;;;;;6186909;23;20428;-84
2022/05/28 08:28:52;;;;;;;9.75;8.73;;;;;;;;;;6187071;23;20031;-84
2022/05/28 08:31:19;;;;;;;9.77;8.70;;;;;;;;;;6187088;23;20048;-84
2022/05/28 08:33:45;;;;;;;9.98;8.98;;;;;;;;;;6187048;23;19996;-84
2022/05/28 08:36:10;;;;;;;9.77;8.82;;;;;;;;;;6186773;23;20301;-84
2022/05/28 08:38:37;;;;;;;9.65;8.73;;;;;;;;;;6160537;23;20364;-84
2022/05/28 08:41:34;;;;;;;10.70;8.55;;;;;;;;;;6160512;23;20360;-84
2022/05/28 08:44:12;;;;;;;9.85;8.65;;;;;;;;;;6170820;23;20036;-86
2022/05/28 08:46:37;;;;;;;11.77;9.55;;;;;;;;;;6186820;23;20032;-84
2022/05/28 08:49:05;;;;;;;10.73;8.50;;;;;;;;;;6186754;23;20060;-84
2022/05/28 08:52:00;;;;;;;9.67;8.20;;;;;;;;;;6186830;23;20002;-86
2022/05/28 08:54:32;;;;;;;7.88;7.07;;;;;;;;;;6160244;23;20016;-84
2022/05/28 08:57:03;;;;;;;8.75;7.95;;;;;;;;;;6160405;23;20064;-83
2022/05/28 08:59:35;;;;;;;8.10;7.30;;;;;;;;;;6160382;23;20007;-83
2022/05/28 09:02:01;;;;;;;9.25;8.07;;;;;;;;;;6186815;23;20033;-84
2022/05/28 09:04:40;;;;;;;11.02;7.78;;;;;;;;;;6186902;23;20008;-83
2022/05/28 09:07:10;;;;;;;9.25;8.25;;;;;;;;;;6186743;23;20005;-84
2022/05/28 09:09:42;;;;;;;11.05;9.88;;;;;;;;;;6186462;23;20136;-83
2022/05/28 09:12:15;;;;;;;10.43;9.15;;;;;;;;;;6186506;23;20019;-83
2022/05/28 09:14:41;;;;;;;10.32;8.35;;;;;;;;;;6186115;23;20009;-83
2022/05/28 09:17:27;;;;;;;9.50;8.45;;;;;;;;;;6187125;23;20032;-85
2022/05/28 09:19:58;;;;;;;10.38;7.95;;;;;;;;;;6188130;23;20001;-82
2022/05/28 09:22:24;;;;;;;9.30;8.30;;;;;;;;;;6184223;23;20424;-80
2022/05/28 09:24:50;;;;;;;8.80;8.00;;;;;;;;;;6186024;23;20051;-80
2022/05/28 09:27:24;;;;;;;9.63;8.18;;;;;;;;;;6187446;23;20097;-81
2022/05/28 09:30:20;;;;;;;10.75;7.80;;;;;;;;;;6186193;23;20337;-80
2022/05/28 09:33:10;;;;;;;10.32;7.70;;;;;;;;;;6186493;23;20096;-79
2022/05/28 09:35:53;;;;;;;9.85;7.43;;;;;;;;;;6187285;23;20008;-80
2022/05/28 09:38:39;;;;;;;10.98;9.40;;;;;;;;;;6186142;23;20004;-81
2022/05/28 09:41:12;;;;;;;8.93;7.97;;;;;;;;;;6186047;23;20007;-81
2022/05/28 09:44:06;;;;;;;10.68;8.85;;;;;;;;;;6187162;23;20005;-81
2022/05/28 09:46:39;;;;;;;11.48;9.30;;;;;;;;;;6186230;23;20004;-81
2022/05/28 09:49:19;;;;;;;12.15;9.75;;;;;;;;;;6159309;23;20336;-81
2022/05/28 09:52:10;;;;;;;14.27;10.20;;;;;;;;;;6159261;23;20306;-81
2022/05/28 09:54:37;;;;;;;12.45;11.15;;;;;;;;;;6186268;23;20386;-81
2022/05/28 09:57:22;;;;;;;12.90;11.25;;;;;;;;;;6186263;23;20464;-84
2022/05/28 09:59:55;;;;;;;10.68;9.57;;;;;;;;;;6175639;23;20024;-86
2022/05/28 10:02:34;;;;;;;11.57;9.52;;;;;;;;;;6186166;23;20416;-82
2022/05/28 10:05:14;;;;;;;;;;;;;;;;;;6186215;23;20454;-81
2022/05/28 10:07:52;;;;;;;12.95;9.77;;;;;;;;;;6159813;23;20379;-82
2022/05/28 10:10:27;;;;;;;10.98;9.90;;;;;;;;;;6186083;23;20009;-81
2022/05/28 10:13:12;;;;;;;10.50;9.32;;;;;;;;;;6186900;23;20013;-81
2022/05/28 10:15:41;;;;;;;13.43;9.35;;;;;;;;;;6185620;23;20451;-82
2022/05/28 10:18:12;;;;;;;13.00;9.55;;;;;;;;;;6186527;23;20348;-85
2022/05/28 10:20:38;;;;;;;11.52;8.77;;;;;;;;;;6186056;23;20076;-81
2022/05/28 10:23:16;;;;;;;14.20;10.27;;;;;;;;;;6185087;23;20074;-85
2022/05/28 10:25:49;;;;;;;11.52;9.77;;;;;;;;;;6186169;23;20009;-86
2022/05/28 10:28:46;;;;;;;10.57;9.48;;;;;;;;;;6185607;23;20005;-85
2022/05/28 10:31:22;;;;;;;10.48;9.48;;;;;;;;;;6177120;23;20056;-84
2022/05/28 10:33:48;;;;;;;13.20;9.95;;;;;;;;;;6185910;23;20051;-84
2022/05/28 10:36:17;;;;;;;13.68;10.02;;;;;;;;;;6185926;23;20041;-83
2022/05/28 10:38:43;;;;;;;12.70;10.43;;;;;;;;;;6159975;23;20455;-83
2022/05/28 10:41:25;;;;;;;12.75;10.85;;;;;;;;;;6185792;23;20001;-80
2022/05/28 10:43:50;;;;;;;13.48;11.45;;;;;;;;;;6186369;23;20005;-84
2022/05/28 10:46:49;;;;;;;12.73;11.52;;;;;;;;;;6186122;23;20381;-81
2022/05/28 10:49:18;;;;;;;12.82;11.05;;;;;;;;;;6185785;23;20005;-80
2022/05/28 10:51:49;;;;;;;14.32;10.23;;;;;;;;;;6185740;23;20005;-83
2022/05/28 10:54:32;;;;;;;13.73;11.02;;;;;;;;;;6185774;23;20001;-84
2022/05/28 10:57:13;;;;;;;16.58;11.07;;;;;;;;;;6185807;23;20001;-81
2022/05/28 10:59:44;;;;;;;16.38;10.90;;;;;;;;;;6185501;23;20001;-77
2022/05/28 11:02:34;;;;;;;14.93;11.57;;;;;;;;;;6185651;23;20032;-77
2022/05/28 11:05:11;;;;;;;17.00;10.55;;;;;;;;;;6185803;23;20031;-77
2022/05/28 11:07:51;;;;;;;12.55;10.02;;;;;;;;;;6185607;23;20487;-77
2022/05/28 11:10:34;;;;;;;14.88;10.88;;;;;;;;;;6185504;23;20389;-81
2022/05/28 11:13:17;;;;;;;13.82;10.85;;;;;;;;;;6185703;23;20069;-77
2022/05/28 11:16:18;;;;;;;16.65;11.27;;;;;;;;;;6185472;23;20096;-78
2022/05/28 11:19:03;;;;;;;14.93;12.68;;;;;;;;;;6185745;23;20005;-77
2022/05/28 11:21:55;;;;;;;16.38;12.10;;;;;;;;;;6185623;23;20029;-80
2022/05/28 11:24:32;;;;;;;17.70;12.85;;;;;;;;;;6185790;23;20001;-77
2022/05/28 11:27:28;;;;;;;17.35;14.15;;;;;;;;;;6159015;23;20027;-80
2022/05/28 11:30:15;;;;;;;22.88;15.60;;;;;;;;;;6185367;23;20093;-73
2022/05/28 11:32:43;;;;;;;25.02;14.52;;;;;;;;;;6187670;23;20005;-73
2022/05/28 11:35:15;;;;;;;20.00;15.23;;;;;;;;;;6187689;23;20001;-76
2022/05/28 11:37:57;;;;;;;20.55;14.90;;;;;;;;;;6187298;23;20011;-82
2022/05/28 11:40:28;;;;;;;25.42;14.23;;;;;;;;;;6187474;23;20009;-78
2022/05/28 11:42:57;;;;;;;20.13;14.40;;;;;;;;;;6187446;23;20104;-80
2022/05/28 11:45:30;;;;;;;23.35;14.48;;;;;;;;;;6187205;23;20009;-79
2022/05/28 11:48:02;;;;;;;24.00;15.48;;;;;;;;;;6187224;23;20376;-79
2022/05/28 11:53:21;;;;;;;19.08;15.50;;;;;;;;;;6187025;23;20376;-78
2022/05/28 11:55:52;;;;;;;23.67;15.32;;;;;;;;;;6186913;23;20005;-78
2022/05/28 11:58:27;;;;;;;25.15;16.00;;;;;;;;;;6187241;23;20008;-78
2022/05/28 12:00:56;;;;;;;19.08;15.20;;;;;;;;;;6185509;23;20020;-78
2022/05/28 12:03:29;;;;;;;19.08;14.52;;;;;;;;;;6186642;23;20001;-78
2022/05/28 12:06:03;;;;;;;20.42;14.32;;;;;;;;;;6186162;23;20008;-78
2022/05/28 12:08:35;;;;;;;26.00;16.05;;;;;;;;;;6186576;23;20008;-78
2022/05/28 12:11:04;;;;;;;20.17;15.65;;;;;;;;;;6186766;23;20005;-78
2022/05/28 12:13:41;;;;;;;24.02;15.10;;;;;;;;;;6187077;23;20376;-78
2022/05/28 12:16:22;;;;;;;21.92;15.65;;;;;;;;;;6186859;23;20013;-78
2022/05/28 12:19:13;;;;;;;20.17;13.40;;;;;;;;;;6187009;23;20032;-78
2022/05/28 12:21:41;;;;;;;21.77;13.00;;;;;;;;;;6183369;23;20087;-78
2022/05/28 12:24:19;;;;;;;22.95;14.98;;;;;;;;;;6186841;23;20080;-78
2022/05/28 12:29:34;;;;;;;22.13;16.15;;;;;;;;;;6186973;23;20458;-78
2022/05/28 12:32:17;;;;;;;;;;;;;;;;;;6187430;23;20011;-78
2022/05/28 12:35:01;;;;;;;33.08;18.70;;;;;;;;;;6186778;23;19935;-78
2022/05/28 12:37:36;;;;;;;32.47;19.85;;;;;;;;;;6186805;23;20378;-78
2022/05/28 12:40:29;;;;;;;34.15;20.33;;;;;;;;;;6186293;23;20009;-78
2022/05/28 12:42:59;;;;;;;28.80;19.85;;;;;;;;;;6186679;23;19997;-78
2022/05/28 12:45:24;;;;;;;30.20;19.58;;;;;;;;;;6186742;23;20051;-79
2022/05/28 12:47:50;;;;;;;23.83;18.52;;;;;;;;;;6186593;23;20068;-78
2022/05/28 12:50:51;;;;;;;21.10;17.27;;;;;;;;;;6186487;23;20325;-78
2022/05/28 12:53:20;;;;;;;21.23;15.02;;;;;;;;;;6186629;23;19998;-78
2022/05/28 12:55:57;;;;;;;15.80;13.35;;;;;;;;;;6186670;23;20008;-78
2022/05/28 12:58:23;;;;;;;22.00;14.95;;;;;;;;;;6186416;23;20009;-78
2022/05/28 13:00:58;;;;;;;23.65;14.32;;;;;;;;;;6186404;23;20027;-79
2022/05/28 13:03:29;;;;;;;19.75;14.73;;;;;;;;;;6186757;23;20421;-78
2022/05/28 13:06:08;;;;;;;17.17;14.25;;;;;;;;;;6186455;23;20388;-79
2022/05/28 13:08:41;;;;;;;19.20;15.50;;;;;;;;;;6159998;23;20399;-78
2022/05/28 13:11:18;;;;;;;15.98;13.63;;;;;;;;;;6186525;23;20005;-78
2022/05/28 13:14:05;;;;;;;17.08;14.20;;;;;;;;;;6186474;23;20064;-79
2022/05/28 13:16:45;;;;;;;20.88;15.52;;;;;;;;;;6186138;23;20016;-79
2022/05/28 13:19:36;;;;;;;18.05;15.05;;;;;;;;;;6186371;23;20460;-79
2022/05/28 13:22:19;;;;;;;18.98;15.20;;;;;;;;;;6186691;23;20047;-79
2022/05/28 13:25:07;;;;;;;21.17;15.43;;;;;;;;;;6185759;23;20032;-78
2022/05/28 13:27:51;;;;;;;18.90;16.27;;;;;;;;;;6185994;23;20494;-80
2022/05/28 13:30:27;;;;;;;16.35;12.88;;;;;;;;;;6186130;23;20028;-79
2022/05/28 13:33:00;;;;;;;17.92;14.13;;;;;;;;;;6186432;23;20436;-77
2022/05/28 13:35:26;;;;;;;16.23;11.27;;;;;;;;;;6186626;23;20325;-77
2022/05/28 13:37:57;;;;;;;14.68;10.45;;;;;;;;;;6186304;23;20009;-77
2022/05/28 13:40:26;;;;;;;13.63;12.18;;;;;;;;;;6186090;23;20031;-77
2022/05/28 13:42:54;;;;;;;14.52;10.98;;;;;;;;;;6186080;23;20424;-77
2022/05/28 13:45:26;;;;;;;14.07;10.60;;;;;;;;;;6186168;23;20068;-77
2022/05/28 13:47:53;;;;;;;13.23;10.30;;;;;;;;;;6186509;23;20080;-77
2022/05/28 13:50:26;;;;;;;12.98;11.27;;;;;;;;;;6185681;23;20012;-79
2022/05/28 13:52:53;;;;;;;11.85;10.75;;;;;;;;;;6185883;23;20033;-78
2022/05/28 13:55:24;;;;;;;15.32;12.20;;;;;;;;;;6186138;23;20020;-78
2022/05/28 13:57:50;;;;;;;12.65;11.35;;;;;;;;;;6185860;23;20001;-79
2022/05/28 14:00:31;;;;;;;13.18;11.35;;;;;;;;;;6186118;23;20036;-78
2022/05/28 14:03:03;;;;;;;14.43;12.10;;;;;;;;;;6186086;23;20001;-78
2022/05/28 14:05:49;;;;;;;18.42;11.57;;;;;;;;;;6158874;23;19997;-79
2022/05/28 14:08:31;;;;;;;14.07;12.18;;;;;;;;;;6184779;23;20009;-78
2022/05/28 14:11:27;;;;;;;14.07;11.05;;;;;;;;;;6185167;23;20071;-78
2022/05/28 14:13:57;;;;;;;12.20;10.73;;;;;;;;;;6185400;23;20060;-78
2022/05/28 14:16:30;;;;;;;11.93;10.63;;;;;;;;;;6185907;23;20090;-78
2022/05/28 14:18:58;;;;;;;11.93;10.55;;;;;;;;;;6184222;23;20028;-77
2022/05/28 14:21:32;;;;;;;11.65;10.45;;;;;;;;;;6185884;23;20005;-78
2022/05/28 14:23:59;;;;;;;13.90;11.15;;;;;;;;;;6185975;23;20005;-78
2022/05/28 14:26:25;;;;;;;15.50;11.15;;;;;;;;;;6185888;23;20001;-78
2022/05/28 14:28:51;;;;;;;11.60;10.40;;;;;;;;;;6185583;23;20369;-78
2022/05/28 14:31:18;;;;;;;11.90;10.60;;;;;;;;;;6185822;23;20001;-78
2022/05/28 14:33:50;;;;;;;12.73;11.35;;;;;;;;;;6186109;23;20002;-78
2022/05/28 14:36:34;;;;;;;13.48;11.32;;;;;;;;;;6185068;23;20002;-77
2022/05/28 14:39:31;;;;;;;14.30;11.23;;;;;;;;;;6185517;23;20043;-78
2022/05/28 14:42:09;;;;;;;12.45;11.13;;;;;;;;;;6184973;23;20005;-78
2022/05/28 14:44:39;;;;;;;12.02;10.60;;;;;;;;;;6185935;23;20005;-79
2022/05/28 14:47:13;;;;;;;12.27;10.48;;;;;;;;;;6185636;23;20076;-79
2022/05/28 14:49:50;;;;;;;14.68;10.65;;;;;;;;;;6185738;23;20032;-79
2022/05/28 14:52:19;;;;;;;11.68;10.20;;;;;;;;;;6184146;23;20009;-79
2022/05/28 14:54:53;;;;;;;14.80;10.80;;;;;;;;;;6185718;23;20077;-79
2022/05/28 14:57:31;;;;;;;13.13;11.73;;;;;;;;;;6185747;23;20001;-80
2022/05/28 14:59:59;;;;;;;15.02;11.40;;;;;;;;;;6185624;23;20101;-79
2022/05/28 15:02:31;;;;;;;13.07;10.85;;;;;;;;;;6186938;23;20424;-80
2022/05/28 15:05:08;;;;;;;13.38;11.13;;;;;;;;;;6187609;23;20005;-80
2022/05/28 15:07:35;;;;;;;12.77;10.82;;;;;;;;;;6187723;23;20412;-80
2022/05/28 15:10:01;;;;;;;13.10;11.80;;;;;;;;;;6187780;23;20013;-80
2022/05/28 15:12:32;;;;;;;13.60;11.88;;;;;;;;;;6187469;23;20001;-80
2022/05/28 15:14:59;;;;;;;15.07;11.43;;;;;;;;;;6187308;23;20025;-79
2022/05/28 15:17:26;;;;;;;31.05;13.10;;;;;;;;;;6187648;23;20001;-85
2022/05/28 15:19:52;;;;;;;15.18;12.60;;;;;;;;;;6187663;23;19998;-81
2022/05/28 15:22:22;;;;;;;15.95;12.57;;;;;;;;;;6187989;23;19998;-81
2022/05/28 15:24:48;;;;;;;14.00;12.60;;;;;;;;;;6187431;23;20001;-81
2022/05/28 15:27:15;;;;;;;14.13;12.68;;;;;;;;;;6188022;23;20008;-86
2022/05/28 15:29:42;;;;;;;19.17;13.07;;;;;;;;;;6161617;23;20340;-87
2022/05/28 15:32:22;;;;;;;14.73;12.73;;;;;;;;;;6187758;23;20002;-86
2022/05/28 15:34:52;;;;;;;13.65;12.25;;;;;;;;;;6188401;23;20028;-85
2022/05/28 15:40:03;;;;;;;15.57;12.98;;;;;;;;;;6189317;23;20011;-83
2022/05/28 15:42:33;;;;;;;13.50;12.20;;;;;;;;;;6188471;23;20004;-87
2022/05/28 15:45:04;;;;;;;15.98;12.68;;;;;;;;;;6189980;23;20059;-86
2022/05/28 15:47:30;;;;;;;14.15;11.82;;;;;;;;;;6189156;23;20096;-83
2022/05/28 15:49:57;;;;;;;20.48;13.00;;;;;;;;;;6188280;23;20087;-81
2022/05/28 15:52:22;;;;;;;16.13;12.55;;;;;;;;;;6188566;23;20463;-87
2022/05/28 15:54:48;;;;;;;15.45;11.00;;;;;;;;;;6192646;23;20001;-80
2022/05/28 15:57:13;;;;;;;14.18;10.82;;;;;;;;;;6191642;23;20034;-79
2022/05/28 15:59:39;;;;;;;13.73;11.45;;;;;;;;;;6190262;23;20015;-81
2022/05/28 16:02:13;;;;;;;15.55;11.98;;;;;;;;;;6194149;23;20001;-80
2022/05/28 16:04:39;;;;;;;15.30;12.90;;;;;;;;;;6196041;23;20013;-82
2022/05/28 16:07:06;;;;;;;13.05;11.60;;;;;;;;;;6192406;23;20017;-84
2022/05/28 16:09:32;;;;;;;12.77;11.38;;;;;;;;;;6190628;23;20380;-80
2022/05/28 16:11:57;;;;;;;13.45;12.05;;;;;;;;;;6191238;23;20005;-83
2022/05/28 16:14:30;;;;;;;15.18;11.93;;;;;;;;;;6191500;23;20329;-78
2022/05/28 16:16:57;;;;;;;10.98;8.80;;;;;;;;;;6217029;23;20008;-79
2022/05/28 16:19:23;;;;;;;8.27;6.70;;;;;;;;;;6221503;23;20013;-79
2022/05/28 16:21:51;;;;;;;6.35;5.72;;;;;;;;;;6222001;23;20317;-85
2022/05/28 16:24:17;;;;;;;5.63;5.13;;;;;;;;;;6224939;23;20035;-84
2022/05/28 16:26:42;;;;;;;5.65;4.88;;;;;;;;;;6228161;23;20004;-81
2022/05/28 16:29:11;;;;;;;5.20;4.70;;;;;;;;;;6224497;23;20036;-80
2022/05/28 16:31:37;;;;;;;4.87;4.37;;;;;;;;;;6222899;23;20066;-81
2022/05/28 16:34:03;;;;;;;5.93;4.60;;;;;;;;;;6218302;23;20416;-80
2022/05/28 16:36:28;;;;;;;10.40;4.07;;;;;;;;;;6218524;23;20472;-81
2022/05/28 16:38:54;;;;;;;4.53;4.05;;;;;;;;;;6218476;23;20009;-80
2022/05/28 16:41:23;;;;;;;7.30;4.05;;;;;;;;;;6218399;23;20336;-81
2022/05/28 16:43:48;;;;;;;3.80;3.40;;;;;;;;;;6218615;23;20001;-80
2022/05/28 16:46:14;;;;;;;4.63;3.65;;;;;;;;;;6219475;23;20059;-80
2022/05/28 16:48:41;;;;;;;7.88;3.78;;;;;;;;;;6220130;23;20006;-80
2022/05/28 16:51:06;;;;;;;4.95;3.50;;;;;;;;;;6217780;23;20005;-82
2022/05/28 16:53:33;;;;;;;4.15;2.90;;;;;;;;;;6220194;23;20463;-80
2022/05/28 16:55:59;;;;;;;5.47;3.30;;;;;;;;;;6221814;23;20035;-79
2022/05/28 16:58:25;;;;;;;4.00;3.33;;;;;;;;;;6218879;23;20008;-81
2022/05/28 17:00:50;;;;;;;4.47;3.35;;;;;;;;;;6218899;23;20032;-85
2022/05/28 17:03:16;;;;;;;3.78;2.95;;;;;;;;;;6217610;23;20032;-83
2022/05/28 17:05:43;;;;;;;6.03;4.05;;;;;;;;;;6216357;23;20391;-84
2022/05/28 17:08:08;;;;;;;5.05;3.80;;;;;;;;;;6216660;23;20024;-84
2022/05/28 17:10:34;;;;;;;4.60;3.60;;;;;;;;;;6215192;23;20007;-80
2022/05/28 17:13:00;;;;;;;4.43;3.80;;;;;;;;;;6216856;23;20000;-83
2022/05/28 17:15:25;;;;;;;4.68;3.20;;;;;;;;;;6207561;23;20144;-83
2022/05/28 17:17:52;;;;;;;3.42;3.10;;;;;;;;;;6187344;23;20001;-85
2022/05/28 17:20:18;;;;;;;3.75;2.90;;;;;;;;;;6186891;23;20011;-84
2022/05/28 17:22:43;;;;;;;3.65;3.10;;;;;;;;;;6187193;23;20057;-82
2022/05/28 17:25:23;;;;;;;4.38;3.00;;;;;;;;;;6186690;23;20001;-83
2022/05/28 17:27:49;;;;;;;3.45;2.58;;;;;;;;;;6187183;23;20044;-87
2022/05/28 17:30:15;;;;;;;4.60;3.63;;;;;;;;;;6187129;23;20012;-83
2022/05/28 17:32:41;;;;;;;3.60;3.25;;;;;;;;;;6187657;23;20098;-81
2022/05/28 17:35:07;;;;;;;3.60;3.30;;;;;;;;;;6186949;23;20416;-85
2022/05/28 17:37:37;;;;;;;5.72;3.45;;;;;;;;;;6187320;23;20060;-85
2022/05/28 17:40:05;;;;;;;4.00;3.55;;;;;;;;;;6187523;23;20001;-85
2022/05/28 17:42:31;;;;;;;4.93;3.53;;;;;;;;;;6186962;23;20005;-85
2022/05/28 17:44:56;;;;;;;5.70;3.83;;;;;;;;;;6186852;23;20464;-88
2022/05/28 17:47:23;;;;;;;8.63;3.45;;;;;;;;;;6187536;23;20067;-88
2022/05/28 17:49:50;;;;;;;4.57;3.60;;;;;;;;;;6187597;23;20009;-88
2022/05/28 17:52:17;;;;;;;5.82;3.70;;;;;;;;;;6188654;23;20012;-86
2022/05/28 17:54:42;;;;;;;5.75;4.25;;;;;;;;;;6161391;23;20437;-86
2022/05/28 17:57:08;;;;;;;6.28;4.43;;;;;;;;;;6189535;23;20036;-88
2022/05/28 17:59:34;;;;;;;5.53;4.25;;;;;;;;;;6194753;23;20013;-89
2022/05/28 18:02:00;;;;;;;5.13;4.00;;;;;;;;;;6171873;23;20020;-86
2022/05/28 18:04:31;;;;;;;5.13;4.60;;;;;;;;;;6187719;23;20056;-82
2022/05/28 18:07:02;;;;;;;6.25;4.88;;;;;;;;;;6186845;23;20005;-86
2022/05/28 18:09:27;;;;;;;7.13;4.53;;;;;;;;;;6187106;23;20005;-86
2022/05/28 18:11:52;;;;;;;5.43;4.80;;;;;;;;;;6186910;23;20016;-85
2022/05/28 18:14:18;;;;;;;5.25;4.75;;;;;;;;;;6186747;23;20001;-81
2022/05/28 18:16:46;;;;;;;7.28;4.80;;;;;;;;;;6186398;23;20028;-85
2022/05/28 18:19:31;;;;;;;6.82;4.40;;;;;;;;;;6186929;23;20016;-85
2022/05/28 18:21:58;;;;;;;12.70;5.38;;;;;;;;;;6186773;23;20005;-85
2022/05/28 18:24:34;;;;;;;7.95;4.50;;;;;;;;;;6187290;23;20016;-83
2022/05/28 18:27:01;;;;;;;5.88;4.95;;;;;;;;;;6186431;23;20084;-83
2022/05/28 18:29:27;;;;;;;5.07;4.57;;;;;;;;;;6187135;23;20475;-84
2022/05/28 18:31:52;;;;;;;5.22;4.60;;;;;;;;;;6186583;23;20088;-84
2022/05/28 18:34:18;;;;;;;6.22;4.50;;;;;;;;;;6186987;23;20091;-83
2022/05/28 18:36:44;;;;;;;6.05;4.38;;;;;;;;;;6187170;23;20001;-86
2022/05/28 18:39:15;;;;;;;6.68;4.25;;;;;;;;;;6162247;23;20012;-83
2022/05/28 18:41:41;;;;;;;8.48;5.35;;;;;;;;;;6188890;23;20001;-86
2022/05/28 18:44:09;;;;;;;8.30;5.35;;;;;;;;;;6190076;23;20001;-86
2022/05/28 18:46:35;;;;;;;5.95;4.68;;;;;;;;;;6163428;23;20368;-87
2022/05/28 18:49:01;;;;;;;4.57;4.18;;;;;;;;;;6188309;23;20005;-87
2022/05/28 18:51:27;;;;;;;7.35;4.88;;;;;;;;;;6189014;23;20084;-84
2022/05/28 18:54:06;;;;;;;5.57;4.28;;;;;;;;;;6188540;23;20055;-87
2022/05/28 18:56:50;;;;;;;7.72;5.18;;;;;;;;;;6188664;23;20001;-85
2022/05/28 18:59:19;;;;;;;6.38;4.93;;;;;;;;;;6188740;23;20001;-84
2022/05/28 19:01:45;;;;;;;8.32;5.78;;;;;;;;;;6188726;23;20005;-87
2022/05/28 19:04:11;;;;;;;9.50;6.40;;;;;;;;;;6188749;23;20321;-84
2022/05/28 19:06:42;;;;;;;8.38;6.75;;;;;;;;;;6188431;23;20012;-86
2022/05/28 19:09:20;;;;;;;5.95;5.28;;;;;;;;;;6188536;23;20009;-87
2022/05/28 19:11:55;;;;;;;9.68;5.28;;;;;;;;;;6188727;23;20036;-87
2022/05/28 19:14:22;;;;;;;6.65;4.78;;;;;;;;;;6189745;23;20417;-86
2022/05/28 19:16:51;;;;;;;7.80;6.35;;;;;;;;;;6188400;23;20020;-85
2022/05/28 19:19:18;;;;;;;;;;;;;;;;;;6188902;23;20001;-86
2022/05/28 19:21:43;;;;;;;8.30;5.35;;;;;;;;;;6188268;23;19912;-86
2022/05/28 19:24:09;;;;;;;7.00;5.32;;;;;;;;;;6188650;23;20005;-88
2022/05/28 19:29:31;;;;;;;5.13;4.40;;;;;;;;;;6188243;23;20448;-87
2022/05/28 19:32:05;;;;;;;5.55;4.00;;;;;;;;;;6188121;23;20301;-84
2022/05/28 19:34:32;;;;;;;7.22;4.28;;;;;;;;;;6188213;23;20426;-86
2022/05/28 19:36:58;;;;;;;6.80;4.50;;;;;;;;;;6187617;23;20001;-85
2022/05/28 19:39:23;;;;;;;6.05;5.43;;;;;;;;;;6188270;23;20009;-86
2022/05/28 19:41:51;;;;;;;8.60;6.18;;;;;;;;;;6187814;23;20001;-86
2022/05/28 19:44:21;;;;;;;7.50;3.97;;;;;;;;;;6188241;23;20417;-88
2022/05/28 19:46:49;;;;;;;5.65;3.88;;;;;;;;;;6187928;23;20028;-83
2022/05/28 19:49:19;;;;;;;6.25;3.83;;;;;;;;;;6187292;23;20036;-85
2022/05/28 19:51:45;;;;;;;5.15;3.53;;;;;;;;;;6188216;23;20001;-88
2022/05/28 19:54:12;;;;;;;5.50;4.10;;;;;;;;;;6188197;23;19997;-86
2022/05/28 19:56:38;;;;;;;8.85;4.00;;;;;;;;;;6188255;23;20029;-84
2022/05/28 19:59:04;;;;;;;5.25;4.28;;;;;;;;;;6187905;23;20059;-87
2022/05/28 20:01:29;;;;;;;5.45;4.25;;;;;;;;;;6187493;23;20088;-87
2022/05/28 20:03:55;;;;;;;6.65;3.47;;;;;;;;;;6187784;23;19997;-86
2022/05/28 20:06:25;;;;;;;5.35;3.80;;;;;;;;;;6187649;23;19993;-87
2022/05/28 20:08:51;;;;;;;3.95;3.45;;;;;;;;;;6187606;23;20420;-86
2022/05/28 20:11:17;;;;;;;5.00;3.28;;;;;;;;;;6187154;23;20444;-86
2022/05/28 20:13:42;;;;;;;5.88;3.90;;;;;;;;;;6187740;23;20009;-86
2022/05/28 20:16:08;;;;;;;8.70;3.80;;;;;;;;;;6187394;23;20013;-86
2022/05/28 20:18:34;;;;;;;5.45;4.00;;;;;;;;;;6187552;23;20008;-86
2022/05/28 20:21:00;;;;;;;4.80;3.85;;;;;;;;;;6187465;23;20005;-85
2022/05/28 20:23:31;;;;;;;9.48;5.45;;;;;;;;;;6187306;23;20005;-86
2022/05/28 20:25:57;;;;;;;4.93;4.20;;;;;;;;;;6187298;23;20005;-87
2022/05/28 20:28:23;;;;;;;4.22;3.83;;;;;;;;;;6187240;23;20005;-86
2022/05/28 20:30:50;;;;;;;9.70;4.28;;;;;;;;;;6187194;23;20009;-84
2022/05/28 20:33:21;;;;;;;6.57;4.43;;;;;;;;;;6187294;23;20409;-87
2022/05/28 20:35:47;;;;;;;5.95;4.32;;;;;;;;;;6187573;23;20358;-86
2022/05/28 20:38:12;;;;;;;6.63;4.15;;;;;;;;;;6187736;23;20048;-86
2022/05/28 20:40:38;;;;;;;4.40;3.88;;;;;;;;;;6187586;23;20012;-88
2022/05/28 20:43:03;;;;;;;4.78;3.47;;;;;;;;;;6161411;23;20009;-85
2022/05/28 20:45:29;;;;;;;5.13;3.63;;;;;;;;;;6187840;23;20421;-86
2022/05/28 20:47:55;;;;;;;3.97;3.58;;;;;;;;;;6160976;23;20062;-87
2022/05/28 20:50:23;;;;;;;5.18;3.22;;;;;;;;;;6187049;23;20005;-85
2022/05/28 20:52:50;;;;;;;6.03;3.13;;;;;;;;;;6187168;23;20075;-82
2022/05/28 20:55:17;;;;;;;4.95;3.67;;;;;;;;;;6187607;23;20001;-86
2022/05/28 20:57:43;;;;;;;2.92;2.42;;;;;;;;;;6187504;23;20005;-90
2022/05/28 21:00:10;;;;;;;3.10;2.47;;;;;;;;;;6187703;23;20029;-86
2022/05/28 21:02:36;;;;;;;4.22;2.45;;;;;;;;;;6188362;23;20005;-82
2022/05/28 21:05:02;;;;;;;2.95;2.30;;;;;;;;;;6190998;23;20425;-85
2022/05/28 21:07:28;;;;;;;2.35;2.10;;;;;;;;;;6194246;23;20008;-85
2022/05/28 21:09:53;;;;;;;2.55;1.50;;;;;;;;;;6190602;23;20005;-85
2022/05/28 21:12:19;;;;;;;2.15;1.52;;;;;;;;;;6161122;23;20009;-83
2022/05/28 21:14:45;;;;;;;2.35;1.40;;;;;;;;;;6186532;23;20080;-84
2022/05/28 21:17:11;;;;;;;2.47;1.80;;;;;;;;;;6160429;23;20096;-83
2022/05/28 21:19:36;;;;;;;1.60;1.50;;;;;;;;;;6186557;23;20128;-86
2022/05/28 21:22:05;;;;;;;1.58;1.48;;;;;;;;;;6186632;23;20033;-83